Mineral, Washington
Current Conditions -  °F | °C
As of 3:58 PM on Monday 20 Oct 2014 (Local Time) from KGRF Reporting Station
Drizzle Drizzle  
Wind Chill: 62°   Ceiling: 9000
Heat Index: 62°   Visibility: 10mi
Dew Point: 53°   Wind: 14mph
Humidity: 72%   Direction: 150°SSE
Pressure: 29.76"   Gusts: NA
Location:  46.72°N, 122.18°W
Report Text: KGRF 202258Z AUTO 15012KT 10SM DZ BKN090 17/12 A2976 RMK AO2 SLP081 P0001 T01680118 $
Loading
Personal Weather Stations






























Interactive Weather Map
Tropical Storm Tracking
New forecast layout! Learn more

10-Day Weather Forecast

Advertisements
Track Severe Weather on mobile